sensor_id;sensor_type;location;lat;lon;timestamp;pressure;altitude;pressure_sealevel;temperature;humidity
61474;BME280;53694;49.784;30.150;2022-08-14T00:00:16;99195.36;;;22.43;69.84
61474;BME280;53694;49.784;30.150;2022-08-14T00:01:18;99196.48;;;22.33;70.42
61474;BME280;53694;49.784;30.150;2022-08-14T00:02:19;99204.80;;;22.24;70.75
61474;BME280;53694;49.784;30.150;2022-08-14T00:03:28;99205.38;;;22.19;71.06
61474;BME280;53694;49.784;30.150;2022-08-14T00:04:26;99202.58;;;22.19;71.35
61474;BME280;53694;49.784;30.150;2022-08-14T00:05:28;99195.05;;;22.29;71.29
61474;BME280;53694;49.784;30.150;2022-08-14T00:06:30;99198.66;;;22.51;70.80
61474;BME280;53694;49.784;30.150;2022-08-14T00:07:32;99200.92;;;22.78;69.81
61474;BME280;53694;49.784;30.150;2022-08-14T00:08:33;99201.48;;;23.08;68.69
61474;BME280;53694;49.784;30.150;2022-08-14T00:09:35;99197.61;;;23.36;67.69
61474;BME280;53694;49.784;30.150;2022-08-14T00:10:37;99202.81;;;23.56;66.88
61474;BME280;53694;49.784;30.150;2022-08-14T00:11:39;99199.74;;;23.63;66.34
61474;BME280;53694;49.784;30.150;2022-08-14T00:12:45;99203.93;;;23.59;66.34
61474;BME280;53694;49.784;30.150;2022-08-14T00:13:46;99201.09;;;23.50;66.53
61474;BME280;53694;49.784;30.150;2022-08-14T00:14:48;99197.61;;;23.36;66.64
61474;BME280;53694;49.784;30.150;2022-08-14T00:15:50;99204.51;;;23.23;67.01
61474;BME280;53694;49.784;30.150;2022-08-14T00:16:52;99207.08;;;23.08;67.57
61474;BME280;53694;49.784;30.150;2022-08-14T00:17:54;99211.31;;;22.90;68.09
61474;BME280;53694;49.784;30.150;2022-08-14T00:18:56;99211.13;;;22.72;68.58
61474;BME280;53694;49.784;30.150;2022-08-14T00:19:57;99210.08;;;22.57;69.11
61474;BME280;53694;49.784;30.150;2022-08-14T00:20:59;99210.55;;;22.42;69.79
61474;BME280;53694;49.784;30.150;2022-08-14T00:22:01;99213.84;;;22.28;70.42
61474;BME280;53694;49.784;30.150;2022-08-14T00:23:04;99213.09;;;22.15;70.99
61474;BME280;53694;49.784;30.150;2022-08-14T00:24:06;99216.20;;;22.04;71.92
61474;BME280;53694;49.784;30.150;2022-08-14T00:25:09;99209.63;;;21.98;72.43
61474;BME280;53694;49.784;30.150;2022-08-14T00:26:12;99213.55;;;22.01;72.62
61474;BME280;53694;49.784;30.150;2022-08-14T00:27:13;99213.88;;;22.15;72.53
61474;BME280;53694;49.784;30.150;2022-08-14T00:28:16;99210.82;;;22.35;71.76
61474;BME280;53694;49.784;30.150;2022-08-14T00:29:18;99211.95;;;22.60;71.00
61474;BME280;53694;49.784;30.150;2022-08-14T00:30:20;99221.17;;;22.82;70.22
61474;BME280;53694;49.784;30.150;2022-08-14T00:31:22;99218.88;;;23.03;69.56
61474;BME280;53694;49.784;30.150;2022-08-14T00:32:24;99222.30;;;23.29;68.90
61474;BME280;53694;49.784;30.150;2022-08-14T00:33:27;99222.56;;;23.53;67.85
61474;BME280;53694;49.784;30.150;2022-08-14T00:34:29;99217.41;;;23.73;67.19
61474;BME280;53694;49.784;30.150;2022-08-14T00:35:31;99221.48;;;23.81;66.53
61474;BME280;53694;49.784;30.150;2022-08-14T00:36:33;99220.84;;;23.77;65.99
61474;BME280;53694;49.784;30.150;2022-08-14T00:37:38;99216.56;;;23.63;65.95
61474;BME280;53694;49.784;30.150;2022-08-14T00:38:40;99217.26;;;23.45;66.42
61474;BME280;53694;49.784;30.150;2022-08-14T00:39:42;99219.62;;;23.25;66.89
61474;BME280;53694;49.784;30.150;2022-08-14T00:40:44;99216.38;;;23.05;67.23
61474;BME280;53694;49.784;30.150;2022-08-14T00:41:46;99213.87;;;22.85;67.95
61474;BME280;53694;49.784;30.150;2022-08-14T00:42:48;99209.81;;;22.64;68.48
61474;BME280;53694;49.784;30.150;2022-08-14T00:43:50;99210.44;;;22.46;69.02
61474;BME280;53694;49.784;30.150;2022-08-14T00:44:52;99202.20;;;22.30;69.62
61474;BME280;53694;49.784;30.150;2022-08-14T00:45:54;99210.30;;;22.15;70.25
61474;BME280;53694;49.784;30.150;2022-08-14T00:46:56;99206.72;;;22.02;70.54
61474;BME280;53694;49.784;30.150;2022-08-14T00:47:58;99207.51;;;21.89;71.11
61474;BME280;53694;49.784;30.150;2022-08-14T00:48:59;99208.08;;;21.84;71.55
61474;BME280;53694;49.784;30.150;2022-08-14T00:50:04;99210.30;;;21.89;71.73
61474;BME280;53694;49.784;30.150;2022-08-14T00:51:08;99207.81;;;22.04;71.47
61474;BME280;53694;49.784;30.150;2022-08-14T00:52:12;99209.92;;;22.26;70.52
61474;BME280;53694;49.784;30.150;2022-08-14T00:53:15;99201.92;;;22.50;69.57
61474;BME280;53694;49.784;30.150;2022-08-14T00:54:17;99212.70;;;22.73;68.88
61474;BME280;53694;49.784;30.150;2022-08-14T00:55:20;99217.56;;;22.94;68.35
61474;BME280;53694;49.784;30.150;2022-08-14T00:56:24;99214.41;;;23.14;67.53
61474;BME280;53694;49.784;30.150;2022-08-14T00:57:31;99220.53;;;23.22;66.94
61474;BME280;53694;49.784;30.150;2022-08-14T00:58:34;99215.84;;;23.19;66.59
61474;BME280;53694;49.784;30.150;2022-08-14T00:59:36;99217.50;;;23.07;66.92
61474;BME280;53694;49.784;30.150;2022-08-14T01:00:39;99219.25;;;22.92;67.05
61474;BME280;53694;49.784;30.150;2022-08-14T01:01:40;99214.27;;;22.74;67.58
61474;BME280;53694;49.784;30.150;2022-08-14T01:02:43;99218.91;;;22.55;68.11
61474;BME280;53694;49.784;30.150;2022-08-14T01:03:45;99215.84;;;22.40;68.77
61474;BME280;53694;49.784;30.150;2022-08-14T01:04:47;99226.28;;;22.27;69.39
61474;BME280;53694;49.784;30.150;2022-08-14T01:05:50;99217.45;;;22.16;69.79
61474;BME280;53694;49.784;30.150;2022-08-14T01:06:53;99223.81;;;22.04;70.18
61474;BME280;53694;49.784;30.150;2022-08-14T01:07:55;99213.09;;;21.89;70.81
61474;BME280;53694;49.784;30.150;2022-08-14T01:08:57;99217.45;;;21.78;71.29
61474;BME280;53694;49.784;30.150;2022-08-14T01:10:01;99212.55;;;21.69;71.63
61474;BME280;53694;49.784;30.150;2022-08-14T01:11:05;99217.91;;;21.76;71.91
61474;BME280;53694;49.784;30.150;2022-08-14T01:12:08;99214.09;;;21.95;71.69
61474;BME280;53694;49.784;30.150;2022-08-14T01:13:11;99210.84;;;22.23;71.01
61474;BME280;53694;49.784;30.150;2022-08-14T01:14:13;99207.86;;;22.52;69.73
61474;BME280;53694;49.784;30.150;2022-08-14T01:15:15;99213.36;;;22.77;68.69
61474;BME280;53694;49.784;30.150;2022-08-14T01:16:18;99207.80;;;22.99;67.74
61474;BME280;53694;49.784;30.150;2022-08-14T01:17:22;99204.92;;;23.12;66.90
61474;BME280;53694;49.784;30.150;2022-08-14T01:18:26;99202.44;;;23.14;66.46
61474;BME280;53694;49.784;30.150;2022-08-14T01:19:28;99206.09;;;23.02;66.77
61474;BME280;53694;49.784;30.150;2022-08-14T01:20:31;99209.39;;;22.87;67.11
61474;BME280;53694;49.784;30.150;2022-08-14T01:21:35;99206.89;;;22.67;67.61
61474;BME280;53694;49.784;30.150;2022-08-14T01:22:38;99197.23;;;22.46;68.26
61474;BME280;53694;49.784;30.150;2022-08-14T01:23:43;99203.91;;;22.27;68.97
61474;BME280;53694;49.784;30.150;2022-08-14T01:24:45;99202.11;;;22.08;69.71
61474;BME280;53694;49.784;30.150;2022-08-14T01:25:49;99201.56;;;21.87;70.37
61474;BME280;53694;49.784;30.150;2022-08-14T01:26:51;99198.56;;;21.69;71.17
61474;BME280;53694;49.784;30.150;2022-08-14T01:27:53;99197.01;;;21.55;71.86
61474;BME280;53694;49.784;30.150;2022-08-14T01:28:57;99190.39;;;21.49;72.29
61474;BME280;53694;49.784;30.150;2022-08-14T01:29:58;99189.41;;;21.56;72.26
61474;BME280;53694;49.784;30.150;2022-08-14T01:31:01;99188.06;;;21.73;71.80
61474;BME280;53694;49.784;30.150;2022-08-14T01:32:04;99197.00;;;21.93;70.96
61474;BME280;53694;49.784;30.150;2022-08-14T01:33:06;99195.42;;;22.18;70.06
61474;BME280;53694;49.784;30.150;2022-08-14T01:34:08;99196.13;;;22.44;69.02
61474;BME280;53694;49.784;30.150;2022-08-14T01:35:10;99196.47;;;22.68;68.22
61474;BME280;53694;49.784;30.150;2022-08-14T01:36:14;99198.19;;;22.87;67.58
61474;BME280;53694;49.784;30.150;2022-08-14T01:37:16;99198.16;;;23.00;67.03
61474;BME280;53694;49.784;30.150;2022-08-14T01:38:18;99201.42;;;22.99;66.62
61474;BME280;53694;49.784;30.150;2022-08-14T01:39:20;99202.91;;;22.90;66.70
61474;BME280;53694;49.784;30.150;2022-08-14T01:40:24;99209.32;;;22.78;67.17
61474;BME280;53694;49.784;30.150;2022-08-14T01:41:26;99198.62;;;22.64;67.44
61474;BME280;53694;49.784;30.150;2022-08-14T01:42:28;99202.27;;;22.52;67.71
61474;BME280;53694;49.784;30.150;2022-08-14T01:43:30;99197.15;;;22.37;67.86
61474;BME280;53694;49.784;30.150;2022-08-14T01:44:31;99193.61;;;22.24;68.27
61474;BME280;53694;49.784;30.150;2022-08-14T01:45:33;99202.77;;;22.12;68.73
61474;BME280;53694;49.784;30.150;2022-08-14T01:46:36;99202.91;;;21.95;69.15
61474;BME280;53694;49.784;30.150;2022-08-14T01:47:38;99198.56;;;21.82;69.59
61474;BME280;53694;49.784;30.150;2022-08-14T01:48:40;99195.31;;;21.70;70.17
61474;BME280;53694;49.784;30.150;2022-08-14T01:49:42;99198.00;;;21.61;70.52
61474;BME280;53694;49.784;30.150;2022-08-14T01:50:44;99198.67;;;21.53;70.90
61474;BME280;53694;49.784;30.150;2022-08-14T01:51:46;99186.72;;;21.52;71.09
61474;BME280;53694;49.784;30.150;2022-08-14T01:52:48;99202.81;;;21.61;71.03
61474;BME280;53694;49.784;30.150;2022-08-14T01:53:59;99197.47;;;21.79;70.67
61474;BME280;53694;49.784;30.150;2022-08-14T01:55:06;99207.70;;;22.08;69.98
61474;BME280;53694;49.784;30.150;2022-08-14T01:56:09;99204.64;;;22.40;69.02
61474;BME280;53694;49.784;30.150;2022-08-14T01:57:11;99203.38;;;22.76;67.67
61474;BME280;53694;49.784;30.150;2022-08-14T01:58:13;99209.35;;;23.00;66.82
61474;BME280;53694;49.784;30.150;2022-08-14T02:00:21;99203.50;;;23.07;65.51
61474;BME280;53694;49.784;30.150;2022-08-14T02:01:23;99206.68;;;22.97;65.47
61474;BME280;53694;49.784;30.150;2022-08-14T02:02:25;99214.02;;;22.81;65.96
61474;BME280;53694;49.784;30.150;2022-08-14T02:03:28;99215.41;;;22.64;66.30
61474;BME280;53694;49.784;30.150;2022-08-14T02:04:33;99207.98;;;22.48;66.80
61474;BME280;53694;49.784;30.150;2022-08-14T02:05:35;99209.49;;;22.27;67.25
61474;BME280;53694;49.784;30.150;2022-08-14T02:06:37;99210.06;;;22.09;67.82
61474;BME280;53694;49.784;30.150;2022-08-14T02:07:40;99208.49;;;21.95;68.37
61474;BME280;53694;49.784;30.150;2022-08-14T02:08:42;99208.19;;;21.81;68.85
61474;BME280;53694;49.784;30.150;2022-08-14T02:09:44;99207.84;;;21.66;69.43
61474;BME280;53694;49.784;30.150;2022-08-14T02:10:46;99216.22;;;21.53;70.02
61474;BME280;53694;49.784;30.150;2022-08-14T02:11:51;99217.01;;;21.41;70.48
61474;BME280;53694;49.784;30.150;2022-08-14T02:12:54;99222.02;;;21.33;70.79
61474;BME280;53694;49.784;30.150;2022-08-14T02:14:05;99217.73;;;21.29;71.03
61474;BME280;53694;49.784;30.150;2022-08-14T02:15:08;99218.67;;;21.38;71.28
61474;BME280;53694;49.784;30.150;2022-08-14T02:16:13;99216.68;;;21.64;70.57
61474;BME280;53694;49.784;30.150;2022-08-14T02:17:15;99210.97;;;21.93;70.04
61474;BME280;53694;49.784;30.150;2022-08-14T02:18:17;99216.33;;;22.26;69.11
61474;BME280;53694;49.784;30.150;2022-08-14T02:19:21;99212.88;;;22.57;67.70
61474;BME280;53694;49.784;30.150;2022-08-14T02:20:24;99220.39;;;22.82;66.70
61474;BME280;53694;49.784;30.150;2022-08-14T02:21:28;99214.95;;;23.00;65.87
61474;BME280;53694;49.784;30.150;2022-08-14T02:22:30;99210.47;;;23.03;65.47
61474;BME280;53694;49.784;30.150;2022-08-14T02:23:32;99226.28;;;22.97;65.32
61474;BME280;53694;49.784;30.150;2022-08-14T02:24:34;99212.44;;;22.80;65.77
61474;BME280;53694;49.784;30.150;2022-08-14T02:25:36;99211.05;;;22.63;66.21
61474;BME280;53694;49.784;30.150;2022-08-14T02:26:39;99203.75;;;22.43;66.77
61474;BME280;53694;49.784;30.150;2022-08-14T02:27:41;99212.41;;;22.24;67.37
61474;BME280;53694;49.784;30.150;2022-08-14T02:28:43;99212.31;;;22.02;67.99
61474;BME280;53694;49.784;30.150;2022-08-14T02:29:45;99208.51;;;21.83;68.50
61474;BME280;53694;49.784;30.150;2022-08-14T02:30:47;99206.63;;;21.67;69.10
61474;BME280;53694;49.784;30.150;2022-08-14T02:31:52;99215.89;;;21.51;69.86
61474;BME280;53694;49.784;30.150;2022-08-14T02:32:55;99211.95;;;21.36;70.55
61474;BME280;53694;49.784;30.150;2022-08-14T02:33:56;99219.95;;;21.21;71.16
61474;BME280;53694;49.784;30.150;2022-08-14T02:34:58;99221.48;;;21.09;71.59
61474;BME280;53694;49.784;30.150;2022-08-14T02:36:01;99216.35;;;21.08;71.82
61474;BME280;53694;49.784;30.150;2022-08-14T02:37:06;99216.35;;;21.08;71.82
61474;BME280;53694;49.784;30.150;2022-08-14T02:38:08;99222.45;;;21.32;71.92
61474;BME280;53694;49.784;30.150;2022-08-14T02:39:11;99223.25;;;21.58;70.80
61474;BME280;53694;49.784;30.150;2022-08-14T02:40:17;99214.55;;;21.81;69.92
61474;BME280;53694;49.784;30.150;2022-08-14T02:41:19;99218.88;;;22.08;69.12
61474;BME280;53694;49.784;30.150;2022-08-14T02:42:21;99217.77;;;22.31;68.22
61474;BME280;53694;49.784;30.150;2022-08-14T02:43:23;99218.40;;;22.48;67.33
61474;BME280;53694;49.784;30.150;2022-08-14T02:44:25;99222.29;;;22.50;67.09
61474;BME280;53694;49.784;30.150;2022-08-14T02:45:27;99217.27;;;22.45;67.02
61474;BME280;53694;49.784;30.150;2022-08-14T02:46:30;99223.56;;;22.36;67.36
61474;BME280;53694;49.784;30.150;2022-08-14T02:47:31;99223.13;;;22.25;67.41
61474;BME280;53694;49.784;30.150;2022-08-14T02:48:33;99215.55;;;22.13;67.83
61474;BME280;53694;49.784;30.150;2022-08-14T02:49:35;99220.03;;;21.98;68.31
61474;BME280;53694;49.784;30.150;2022-08-14T02:50:37;99214.88;;;21.83;68.75
61474;BME280;53694;49.784;30.150;2022-08-14T02:51:39;99217.35;;;21.68;69.12
61474;BME280;53694;49.784;30.150;2022-08-14T02:52:41;99223.39;;;21.54;69.65
61474;BME280;53694;49.784;30.150;2022-08-14T02:53:44;99219.34;;;21.42;70.05
61474;BME280;53694;49.784;30.150;2022-08-14T02:54:46;99221.31;;;21.29;70.48
61474;BME280;53694;49.784;30.150;2022-08-14T02:55:48;99222.84;;;21.17;71.08
61474;BME280;53694;49.784;30.150;2022-08-14T02:56:50;99224.17;;;21.13;71.68
61474;BME280;53694;49.784;30.150;2022-08-14T02:57:52;99228.19;;;21.41;71.13
61474;BME280;53694;49.784;30.150;2022-08-14T02:58:55;99228.19;;;21.41;71.13
61474;BME280;53694;49.784;30.150;2022-08-14T02:59:57;99229.09;;;21.63;70.22
61474;BME280;53694;49.784;30.150;2022-08-14T03:00:59;99212.08;;;21.83;69.29
61474;BME280;53694;49.784;30.150;2022-08-14T03:02:02;99217.91;;;22.14;68.37
61474;BME280;53694;49.784;30.150;2022-08-14T03:03:05;99226.36;;;22.36;67.39
61474;BME280;53694;49.784;30.150;2022-08-14T03:04:07;99218.13;;;22.55;67.08
61474;BME280;53694;49.784;30.150;2022-08-14T03:05:09;99221.52;;;22.50;67.27
61474;BME280;53694;49.784;30.150;2022-08-14T03:06:12;99221.52;;;22.50;67.27
61474;BME280;53694;49.784;30.150;2022-08-14T03:07:14;99220.42;;;22.34;67.26
61474;BME280;53694;49.784;30.150;2022-08-14T03:08:17;99219.67;;;22.21;67.67
61474;BME280;53694;49.784;30.150;2022-08-14T03:09:18;99209.52;;;22.02;68.20
61474;BME280;53694;49.784;30.150;2022-08-14T03:10:21;99219.69;;;21.83;68.81
61474;BME280;53694;49.784;30.150;2022-08-14T03:11:23;99219.37;;;21.68;69.29
61474;BME280;53694;49.784;30.150;2022-08-14T03:12:25;99215.78;;;21.55;69.78
61474;BME280;53694;49.784;30.150;2022-08-14T03:13:27;99220.91;;;21.43;70.14
61474;BME280;53694;49.784;30.150;2022-08-14T03:14:28;99219.23;;;21.33;70.48
61474;BME280;53694;49.784;30.150;2022-08-14T03:15:31;99220.17;;;21.27;70.75
61474;BME280;53694;49.784;30.150;2022-08-14T03:16:33;99218.95;;;21.28;71.18
61474;BME280;53694;49.784;30.150;2022-08-14T03:17:35;99214.55;;;21.43;71.04
61474;BME280;53694;49.784;30.150;2022-08-14T03:18:37;99213.11;;;21.64;69.87
61474;BME280;53694;49.784;30.150;2022-08-14T03:19:39;99205.95;;;21.88;69.27
61474;BME280;53694;49.784;30.150;2022-08-14T03:20:41;99213.41;;;22.17;68.49
61474;BME280;53694;49.784;30.150;2022-08-14T03:21:43;99208.22;;;22.41;67.51
61474;BME280;53694;49.784;30.150;2022-08-14T03:22:45;99211.33;;;22.56;66.78
61474;BME280;53694;49.784;30.150;2022-08-14T03:23:49;99223.95;;;22.60;66.37
61474;BME280;53694;49.784;30.150;2022-08-14T03:24:52;99212.88;;;22.57;66.15
61474;BME280;53694;49.784;30.150;2022-08-14T03:25:53;99220.73;;;22.49;66.51
61474;BME280;53694;49.784;30.150;2022-08-14T03:26:55;99213.94;;;22.37;66.79
61474;BME280;53694;49.784;30.150;2022-08-14T03:27:57;99218.66;;;22.28;66.80
61474;BME280;53694;49.784;30.150;2022-08-14T03:28:59;99217.80;;;22.18;66.99
61474;BME280;53694;49.784;30.150;2022-08-14T03:30:01;99212.05;;;22.09;67.33
61474;BME280;53694;49.784;30.150;2022-08-14T03:31:03;99215.22;;;21.98;67.72
61474;BME280;53694;49.784;30.150;2022-08-14T03:32:05;99212.32;;;21.89;67.77
61474;BME280;53694;49.784;30.150;2022-08-14T03:33:08;99212.64;;;21.78;67.77
61474;BME280;53694;49.784;30.150;2022-08-14T03:34:10;99215.34;;;21.69;68.07
61474;BME280;53694;49.784;30.150;2022-08-14T03:35:12;99206.84;;;21.60;68.57
61474;BME280;53694;49.784;30.150;2022-08-14T03:36:17;99218.23;;;21.53;68.75
61474;BME280;53694;49.784;30.150;2022-08-14T03:37:20;99210.52;;;21.44;68.85
61474;BME280;53694;49.784;30.150;2022-08-14T03:38:21;99221.11;;;21.36;69.18
61474;BME280;53694;49.784;30.150;2022-08-14T03:39:23;99218.06;;;21.31;69.62
61474;BME280;53694;49.784;30.150;2022-08-14T03:40:25;99226.22;;;21.25;69.54
61474;BME280;53694;49.784;30.150;2022-08-14T03:41:28;99222.39;;;21.19;69.53
61474;BME280;53694;49.784;30.150;2022-08-14T03:42:29;99217.81;;;21.12;70.08
61474;BME280;53694;49.784;30.150;2022-08-14T03:43:31;99224.37;;;21.06;70.34
61474;BME280;53694;49.784;30.150;2022-08-14T03:44:32;99218.78;;;21.06;70.89
61474;BME280;53694;49.784;30.150;2022-08-14T03:45:36;99217.03;;;21.12;70.65
61474;BME280;53694;49.784;30.150;2022-08-14T03:46:38;99218.84;;;21.31;70.22
61474;BME280;53694;49.784;30.150;2022-08-14T03:47:40;99211.76;;;21.56;69.24
61474;BME280;53694;49.784;30.150;2022-08-14T03:48:44;99208.40;;;21.86;68.24
61474;BME280;53694;49.784;30.150;2022-08-14T03:49:45;99222.61;;;22.17;67.41
61474;BME280;53694;49.784;30.150;2022-08-14T03:50:49;99215.25;;;22.45;66.37
61474;BME280;53694;49.784;30.150;2022-08-14T03:51:51;99209.16;;;22.60;65.74
61474;BME280;53694;49.784;30.150;2022-08-14T03:52:52;99212.17;;;22.65;65.30
61474;BME280;53694;49.784;30.150;2022-08-14T03:53:56;99216.34;;;22.61;65.22
61474;BME280;53694;49.784;30.150;2022-08-14T03:54:58;99215.80;;;22.53;65.17
61474;BME280;53694;49.784;30.150;2022-08-14T03:56:00;99212.14;;;22.43;65.25
61474;BME280;53694;49.784;30.150;2022-08-14T03:57:03;99216.41;;;22.35;65.48
61474;BME280;53694;49.784;30.150;2022-08-14T03:58:05;99215.67;;;22.22;65.17
61474;BME280;53694;49.784;30.150;2022-08-14T03:59:08;99208.94;;;22.07;65.68
61474;BME280;53694;49.784;30.150;2022-08-14T04:00:11;99202.23;;;21.91;66.33
61474;BME280;53694;49.784;30.150;2022-08-14T04:01:15;99211.76;;;21.81;66.73
61474;BME280;53694;49.784;30.150;2022-08-14T04:02:17;99204.83;;;21.73;67.02
61474;BME280;53694;49.784;30.150;2022-08-14T04:03:19;99200.27;;;21.66;67.26
61474;BME280;53694;49.784;30.150;2022-08-14T04:04:21;99198.78;;;21.62;67.71
61474;BME280;53694;49.784;30.150;2022-08-14T04:05:23;99200.91;;;21.58;67.79
61474;BME280;53694;49.784;30.150;2022-08-14T04:06:25;99201.47;;;21.53;67.68
61474;BME280;53694;49.784;30.150;2022-08-14T04:07:26;99191.20;;;21.50;67.96
61474;BME280;53694;49.784;30.150;2022-08-14T04:08:28;99192.87;;;21.47;68.27
61474;BME280;53694;49.784;30.150;2022-08-14T04:09:30;99191.31;;;21.46;68.39
61474;BME280;53694;49.784;30.150;2022-08-14T04:10:32;99192.52;;;21.45;68.22
61474;BME280;53694;49.784;30.150;2022-08-14T04:11:35;99190.18;;;21.43;68.15
61474;BME280;53694;49.784;30.150;2022-08-14T04:12:37;99191.41;;;21.42;68.37
61474;BME280;53694;49.784;30.150;2022-08-14T04:13:40;99195.45;;;21.41;68.60
61474;BME280;53694;49.784;30.150;2022-08-14T04:14:42;99184.70;;;21.40;68.57
61474;BME280;53694;49.784;30.150;2022-08-14T04:15:45;99197.11;;;21.39;68.54
61474;BME280;53694;49.784;30.150;2022-08-14T04:16:47;99196.78;;;21.37;68.62
61474;BME280;53694;49.784;30.150;2022-08-14T04:17:49;99187.27;;;21.34;68.69
61474;BME280;53694;49.784;30.150;2022-08-14T04:18:53;99184.13;;;21.32;68.72
61474;BME280;53694;49.784;30.150;2022-08-14T04:19:55;99199.30;;;21.31;69.12
61474;BME280;53694;49.784;30.150;2022-08-14T04:20:57;99197.41;;;21.28;68.94
61474;BME280;53694;49.784;30.150;2022-08-14T04:21:59;99200.63;;;21.27;69.08
61474;BME280;53694;49.784;30.150;2022-08-14T04:23:01;99189.13;;;21.25;69.23
61474;BME280;53694;49.784;30.150;2022-08-14T04:24:03;99192.70;;;21.25;69.64
61474;BME280;53694;49.784;30.150;2022-08-14T04:25:05;99195.05;;;21.27;69.72
61474;BME280;53694;49.784;30.150;2022-08-14T04:26:09;99198.19;;;21.29;69.39
61474;BME280;53694;49.784;30.150;2022-08-14T04:27:11;99192.61;;;21.29;69.36
61474;BME280;53694;49.784;30.150;2022-08-14T04:28:13;99195.83;;;21.27;69.19
61474;BME280;53694;49.784;30.150;2022-08-14T04:29:15;99195.05;;;21.27;69.20
61474;BME280;53694;49.784;30.150;2022-08-14T04:30:17;99195.83;;;21.27;69.39
61474;BME280;53694;49.784;30.150;2022-08-14T04:31:20;99198.30;;;21.25;69.80
61474;BME280;53694;49.784;30.150;2022-08-14T04:32:22;99199.53;;;21.24;69.73
61474;BME280;53694;49.784;30.150;2022-08-14T04:33:24;99196.73;;;21.24;69.99
61474;BME280;53694;49.784;30.150;2022-08-14T04:34:26;99195.92;;;21.23;69.85
61474;BME280;53694;49.784;30.150;2022-08-14T04:35:28;99202.31;;;21.24;70.10
61474;BME280;53694;49.784;30.150;2022-08-14T04:36:31;99203.98;;;21.21;69.71
61474;BME280;53694;49.784;30.150;2022-08-14T04:37:32;99208.43;;;21.19;69.68
61474;BME280;53694;49.784;30.150;2022-08-14T04:38:34;99205.21;;;21.20;70.01
61474;BME280;53694;49.784;30.150;2022-08-14T04:39:36;99211.70;;;21.30;70.17
61474;BME280;53694;49.784;30.150;2022-08-14T04:40:38;99207.82;;;21.40;69.87
61474;BME280;53694;49.784;30.150;2022-08-14T04:41:40;99204.27;;;21.53;69.73
61474;BME280;53694;49.784;30.150;2022-08-14T04:42:42;99207.97;;;21.75;69.29
61474;BME280;53694;49.784;30.150;2022-08-14T04:43:43;99212.73;;;22.00;68.42
61474;BME280;53694;49.784;30.150;2022-08-14T04:44:45;99224.60;;;22.17;68.03
61474;BME280;53694;49.784;30.150;2022-08-14T04:45:47;99221.58;;;22.24;67.63
61474;BME280;53694;49.784;30.150;2022-08-14T04:46:49;99218.32;;;22.26;67.41
61474;BME280;53694;49.784;30.150;2022-08-14T04:47:51;99219.55;;;22.25;67.06
61474;BME280;53694;49.784;30.150;2022-08-14T04:48:53;99217.34;;;22.19;67.03
61474;BME280;53694;49.784;30.150;2022-08-14T04:49:55;99213.09;;;22.15;67.08
61474;BME280;53694;49.784;30.150;2022-08-14T04:50:58;99217.22;;;22.10;67.29
61474;BME280;53694;49.784;30.150;2022-08-14T04:52:00;99225.40;;;22.05;67.41
61474;BME280;53694;49.784;30.150;2022-08-14T04:53:02;99215.22;;;21.98;67.57
61474;BME280;53694;49.784;30.150;2022-08-14T04:54:04;99209.84;;;21.91;67.67
61474;BME280;53694;49.784;30.150;2022-08-14T04:55:06;99221.27;;;21.84;67.81
61474;BME280;53694;49.784;30.150;2022-08-14T04:56:11;99221.03;;;21.78;68.19
61474;BME280;53694;49.784;30.150;2022-08-14T04:57:13;99220.04;;;21.72;68.48
61474;BME280;53694;49.784;30.150;2022-08-14T04:58:26;99219.37;;;21.68;69.02
61474;BME280;53694;49.784;30.150;2022-08-14T04:59:28;99211.09;;;21.64;69.43
61474;BME280;53694;49.784;30.150;2022-08-14T05:00:30;99209.18;;;21.61;69.45
61474;BME280;53694;49.784;30.150;2022-08-14T05:01:32;99222.05;;;21.59;69.79
61474;BME280;53694;49.784;30.150;2022-08-14T05:02:34;99217.34;;;21.56;69.70
61474;BME280;53694;49.784;30.150;2022-08-14T05:03:37;99219.81;;;21.54;69.19
61474;BME280;53694;49.784;30.150;2022-08-14T05:04:39;99213.55;;;21.50;69.49
61474;BME280;53694;49.784;30.150;2022-08-14T05:05:40;99215.67;;;21.45;69.70
61474;BME280;53694;49.784;30.150;2022-08-14T05:06:42;99216.20;;;21.40;69.93
61474;BME280;53694;49.784;30.150;2022-08-14T05:07:44;99209.94;;;21.36;70.09
61474;BME280;53694;49.784;30.150;2022-08-14T05:08:47;99218.31;;;21.36;70.59
61474;BME280;53694;49.784;30.150;2022-08-14T05:09:49;99211.17;;;21.35;70.57
61474;BME280;53694;49.784;30.150;2022-08-14T05:10:56;99211.42;;;21.41;70.67
61474;BME280;53694;49.784;30.150;2022-08-14T05:11:58;99206.49;;;21.58;70.39
61474;BME280;53694;49.784;30.150;2022-08-14T05:12:59;99201.25;;;21.85;69.11
61474;BME280;53694;49.784;30.150;2022-08-14T05:14:02;99204.25;;;22.16;68.76
61474;BME280;53694;49.784;30.150;2022-08-14T05:15:05;99205.97;;;22.49;67.90
61474;BME280;53694;49.784;30.150;2022-08-14T05:16:08;99201.83;;;22.75;66.69
61474;BME280;53694;49.784;30.150;2022-08-14T05:17:11;99195.39;;;22.87;65.62
61474;BME280;53694;49.784;30.150;2022-08-14T05:18:15;99202.91;;;22.90;65.51
61474;BME280;53694;49.784;30.150;2022-08-14T05:19:17;99204.09;;;22.89;65.50
61474;BME280;53694;49.784;30.150;2022-08-14T05:20:21;99206.28;;;22.85;65.70
61474;BME280;53694;49.784;30.150;2022-08-14T05:21:22;99203.72;;;22.78;66.21
61474;BME280;53694;49.784;30.150;2022-08-14T05:22:24;99199.15;;;22.71;66.23
61474;BME280;53694;49.784;30.150;2022-08-14T05:23:28;99203.44;;;22.63;66.31
61474;BME280;53694;49.784;30.150;2022-08-14T05:24:30;99201.34;;;22.55;67.03
61474;BME280;53694;49.784;30.150;2022-08-14T05:25:32;99201.73;;;22.44;67.20
61474;BME280;53694;49.784;30.150;2022-08-14T05:26:35;99208.80;;;22.36;67.37
61474;BME280;53694;49.784;30.150;2022-08-14T05:27:36;99213.53;;;22.26;67.95